createdAt,value
2023-05-12T00:00:58.110Z,46.94
2023-05-12T00:06:04.524Z,46.86
2023-05-12T00:11:10.118Z,46.55
2023-05-12T00:16:17.544Z,46.50
2023-05-12T00:21:23.045Z,46.32
2023-05-12T00:26:28.341Z,46.07
2023-05-12T00:31:33.803Z,45.95
2023-05-12T00:36:39.991Z,45.93
2023-05-12T00:41:45.556Z,45.84
2023-05-12T00:46:52.783Z,45.58
2023-05-12T00:51:59.524Z,45.44
2023-05-12T00:57:06.258Z,45.47
2023-05-12T01:02:12.701Z,45.34
2023-05-12T01:07:21.850Z,45.56
2023-05-12T01:12:28.631Z,45.64
2023-05-12T01:17:37.090Z,45.71
2023-05-12T01:22:46.341Z,46.15
2023-05-12T01:27:52.652Z,46.13
2023-05-12T01:32:59.288Z,46.77
2023-05-12T01:38:04.945Z,46.75
2023-05-12T01:43:13.427Z,46.59
2023-05-12T01:48:18.888Z,46.59
2023-05-12T01:53:25.065Z,46.72
2023-05-12T01:58:30.700Z,46.61
2023-05-12T02:03:38.141Z,46.91
2023-05-12T02:08:48.416Z,47.44
2023-05-12T02:13:54.820Z,47.34
2023-05-12T02:19:00.979Z,47.45
2023-05-12T02:24:07.120Z,47.74
2023-05-12T02:29:13.892Z,47.92
2023-05-12T02:34:19.564Z,47.99
2023-05-12T02:39:25.002Z,48.28
2023-05-12T02:44:30.437Z,49.37
2023-05-12T02:49:36.466Z,49.39
2023-05-12T02:54:42.035Z,49.75
2023-05-12T02:59:47.597Z,50.48
2023-05-12T03:04:53.018Z,50.97
2023-05-12T03:09:59.027Z,52.01
2023-05-12T03:15:04.895Z,52.90
2023-05-12T03:20:14.286Z,53.77
2023-05-12T03:25:22.645Z,55.03
2023-05-12T03:30:28.074Z,54.79
2023-05-12T03:35:33.540Z,53.50
2023-05-12T03:40:40.614Z,52.72
2023-05-12T03:45:47.401Z,52.18
2023-05-12T03:50:54.124Z,51.34
2023-05-12T03:56:05.616Z,50.71
2023-05-12T04:01:11.701Z,50.40
2023-05-12T04:06:17.110Z,49.64
2023-05-12T04:11:23.561Z,49.03
2023-05-12T04:16:29.140Z,47.71
2023-05-12T04:21:37.353Z,43.71
2023-05-12T04:26:42.888Z,39.26
2023-05-12T04:31:48.409Z,35.12
2023-05-12T04:36:54.222Z,32.49
2023-05-12T04:42:04.538Z,29.71
2023-05-12T04:47:12.377Z,28.43
2023-05-12T04:52:18.046Z,26.59
2023-05-12T04:57:23.556Z,24.88
2023-05-12T05:02:29.421Z,24.19
2023-05-12T05:07:38.849Z,22.97
2023-05-12T05:12:44.920Z,22.24
2023-05-12T05:17:51.170Z,20.99
2023-05-12T05:22:56.993Z,20.20
2023-05-12T05:28:02.869Z,19.60
2023-05-12T05:33:08.592Z,19.15
2023-05-12T05:38:15.306Z,18.44
2023-05-12T05:43:20.903Z,18.87
2023-05-12T05:48:26.684Z,18.09
2023-05-12T05:53:33.814Z,17.79
2023-05-12T05:58:39.820Z,17.82
2023-05-12T06:03:45.927Z,16.70
2023-05-12T06:08:51.499Z,16.31
2023-05-12T06:13:56.937Z,16.10
2023-05-12T06:19:04.293Z,16.11
2023-05-12T06:24:09.947Z,15.68
2023-05-12T06:29:15.507Z,15.84
2023-05-12T06:34:21.287Z,15.51
2023-05-12T06:39:26.885Z,15.10
2023-05-12T06:44:32.374Z,14.98
2023-05-12T06:49:38.696Z,14.54
2023-05-12T06:54:48.361Z,14.44
2023-05-12T06:59:56.858Z,14.34
2023-05-12T07:05:02.445Z,14.50
2023-05-12T07:10:09.897Z,14.29
2023-05-12T07:15:15.628Z,14.00
2023-05-12T07:20:21.216Z,14.09
2023-05-12T07:25:28.176Z,14.15
2023-05-12T07:30:33.763Z,14.48
2023-05-12T07:35:39.753Z,14.14
2023-05-12T07:40:45.370Z,13.48
2023-05-12T07:45:51.164Z,13.51
2023-05-12T07:50:57.250Z,13.74
2023-05-12T07:56:02.832Z,13.14
2023-05-12T08:01:09.275Z,13.76
2023-05-12T08:06:14.742Z,13.73
2023-05-12T08:11:20.906Z,13.10
2023-05-12T08:16:26.360Z,12.18
2023-05-12T08:21:31.769Z,12.85
2023-05-12T08:26:37.150Z,13.01
2023-05-12T08:31:42.725Z,13.68
2023-05-12T08:36:48.552Z,13.51
2023-05-12T08:42:10.575Z,12.87
2023-05-12T08:47:18.760Z,12.97
2023-05-12T08:52:25.933Z,13.26
2023-05-12T08:57:31.932Z,12.89
2023-05-12T09:02:52.091Z,12.93
2023-05-12T09:07:59.879Z,12.68
2023-05-12T09:13:13.538Z,12.59
2023-05-12T09:18:19.376Z,12.87
2023-05-12T09:23:26.050Z,13.24
2023-05-12T09:28:38.290Z,13.70
2023-05-12T09:33:44.113Z,13.63
2023-05-12T09:39:00.606Z,13.36
2023-05-12T09:44:07.856Z,13.83
2023-05-12T09:49:18.241Z,13.96
2023-05-12T09:54:28.474Z,14.58
2023-05-12T09:59:36.563Z,14.99
2023-05-12T10:04:48.009Z,14.26
2023-05-12T10:09:55.558Z,14.26
2023-05-12T10:15:01.906Z,14.78
2023-05-12T10:20:10.104Z,14.64
2023-05-12T10:25:16.945Z,15.14
2023-05-12T10:30:23.414Z,15.07
2023-05-12T10:35:36.390Z,15.07
2023-05-12T10:40:54.028Z,15.38
2023-05-12T10:46:10.870Z,15.06
2023-05-12T10:51:23.042Z,15.44
2023-05-12T10:56:30.768Z,14.83
2023-05-12T11:01:38.015Z,14.85
2023-05-12T11:06:53.219Z,15.73
2023-05-12T11:12:00.449Z,16.57
2023-05-12T11:17:06.987Z,17.63
2023-05-12T11:22:13.834Z,16.60
2023-05-12T11:27:23.806Z,16.84
2023-05-12T11:32:31.721Z,16.58
2023-05-12T11:37:40.373Z,17.04
2023-05-12T11:42:51.946Z,17.22
2023-05-12T11:48:09.837Z,17.29
2023-05-12T11:53:18.529Z,17.39
2023-05-12T11:58:26.633Z,17.63
2023-05-12T12:03:32.290Z,18.41
2023-05-12T12:08:40.586Z,18.68
2023-05-12T12:13:56.732Z,18.70
2023-05-12T12:19:02.431Z,18.96
2023-05-12T12:24:08.431Z,19.07
2023-05-12T12:29:14.551Z,19.04
2023-05-12T12:34:19.894Z,19.04
2023-05-12T12:39:25.921Z,19.01
2023-05-12T12:44:31.239Z,18.76
2023-05-12T12:49:36.758Z,19.14
2023-05-12T12:54:42.200Z,19.38
2023-05-12T12:59:48.929Z,19.65
2023-05-12T13:04:54.888Z,19.35
2023-05-12T13:10:00.339Z,19.09
2023-05-12T13:15:07.247Z,19.40
2023-05-12T13:20:14.301Z,19.81
2023-05-12T13:25:20.094Z,19.53
2023-05-12T13:30:25.956Z,19.69
2023-05-12T13:35:31.705Z,19.63
2023-05-12T13:40:37.273Z,19.72
2023-05-12T13:45:42.864Z,20.19
2023-05-12T13:50:48.222Z,20.25
2023-05-12T13:55:53.583Z,20.49
2023-05-12T14:00:59.260Z,20.98
2023-05-12T14:06:05.012Z,21.09
2023-05-12T14:11:11.461Z,21.38
2023-05-12T14:16:17.047Z,21.47
2023-05-12T14:21:22.968Z,21.60
2023-05-12T14:26:28.396Z,21.33
2023-05-12T14:31:34.322Z,21.61
2023-05-12T14:36:39.839Z,21.51
2023-05-12T14:41:45.704Z,21.71
2023-05-12T14:46:51.547Z,21.95
2023-05-12T14:51:57.522Z,22.37
2023-05-12T14:57:04.090Z,21.98
2023-05-12T15:02:12.600Z,21.74
2023-05-12T15:07:18.911Z,22.03
2023-05-12T15:12:24.959Z,21.99
2023-05-12T15:17:30.770Z,21.84
2023-05-12T15:22:38.944Z,22.37
2023-05-12T15:27:44.436Z,22.13
2023-05-12T15:32:50.037Z,21.84
2023-05-12T15:37:55.576Z,21.84
2023-05-12T15:43:01.144Z,21.99
2023-05-12T15:48:09.515Z,22.22
2023-05-12T15:53:17.168Z,22.35
2023-05-12T15:58:24.942Z,22.72
2023-05-12T16:03:30.652Z,22.86
2023-05-12T16:08:36.544Z,23.19
2023-05-12T16:13:42.440Z,23.25
2023-05-12T16:18:47.836Z,23.44
2023-05-12T16:23:53.438Z,23.63
2023-05-12T16:28:58.752Z,23.74
2023-05-12T16:34:04.310Z,23.64
2023-05-12T16:39:10.465Z,23.73
2023-05-12T16:44:15.838Z,23.93
2023-05-12T16:49:21.177Z,23.84
2023-05-12T16:54:26.924Z,24.08
2023-05-12T16:59:32.429Z,24.36
2023-05-12T17:04:38.015Z,24.50
2023-05-12T17:09:43.466Z,24.80
2023-05-12T17:14:56.104Z,24.93
2023-05-12T17:20:13.876Z,25.19
2023-05-12T17:25:20.871Z,25.44
2023-05-12T17:30:26.995Z,25.60
2023-05-12T17:36:10.887Z,25.90
2023-05-12T17:41:22.711Z,26.27
2023-05-12T17:46:28.420Z,26.57
2023-05-12T17:51:35.461Z,26.85
2023-05-12T17:56:41.366Z,27.34
2023-05-12T18:01:46.797Z,29.76
2023-05-12T18:06:52.707Z,30.40
2023-05-12T18:11:58.158Z,33.51
2023-05-12T18:17:03.714Z,36.27
2023-05-12T18:22:09.189Z,36.80
2023-05-12T18:27:15.104Z,38.32
2023-05-12T18:32:20.497Z,38.98
2023-05-12T18:37:25.956Z,37.93
2023-05-12T18:42:31.919Z,38.12
2023-05-12T18:47:37.665Z,39.58
2023-05-12T18:52:44.016Z,41.33
2023-05-12T18:57:49.668Z,41.68
2023-05-12T19:02:55.146Z,41.86
2023-05-12T19:08:00.884Z,41.88
2023-05-12T19:13:06.759Z,41.20
2023-05-12T19:18:12.592Z,40.54
2023-05-12T19:23:18.120Z,40.20
2023-05-12T19:28:24.299Z,43.04
2023-05-12T19:33:31.972Z,46.01
2023-05-12T19:38:38.017Z,47.55
2023-05-12T19:43:43.417Z,48.74
2023-05-12T19:48:49.388Z,50.34
2023-05-12T19:53:55.151Z,51.42
2023-05-12T19:59:00.655Z,51.42
2023-05-12T20:04:06.158Z,52.05
2023-05-12T20:09:12.019Z,53.50
2023-05-12T20:14:17.443Z,54.54
2023-05-12T20:19:22.874Z,55.98
2023-05-12T20:24:28.441Z,56.74
2023-05-12T20:29:34.413Z,57.56
2023-05-12T20:34:39.906Z,58.53
2023-05-12T20:39:45.303Z,59.40
2023-05-12T20:44:51.003Z,60.05
2023-05-12T20:50:05.302Z,60.47
2023-05-12T20:55:11.352Z,61.59
2023-05-12T21:00:18.335Z,62.56
2023-05-12T21:05:23.985Z,63.29
2023-05-12T21:10:31.228Z,64.39
2023-05-12T21:15:37.216Z,65.10
2023-05-12T21:20:42.659Z,66.07
2023-05-12T21:25:49.043Z,66.36
2023-05-12T21:30:54.992Z,67.16
2023-05-12T21:36:00.760Z,67.78
2023-05-12T21:41:06.421Z,68.67
2023-05-12T21:46:11.969Z,69.42
2023-05-12T21:51:17.615Z,70.25
2023-05-12T21:56:23.217Z,71.22
2023-05-12T22:01:29.742Z,71.49
2023-05-12T22:06:35.546Z,71.95
2023-05-12T22:11:41.304Z,71.85
2023-05-12T22:16:47.878Z,71.83
2023-05-12T22:21:54.951Z,71.76
2023-05-12T22:27:01.147Z,72.46
2023-05-12T22:32:07.684Z,73.39
2023-05-12T22:37:13.368Z,73.93
2023-05-12T22:42:18.943Z,74.56
2023-05-12T22:47:24.521Z,75.17
2023-05-12T22:52:30.612Z,75.88
2023-05-12T22:57:38.618Z,76.65
2023-05-12T23:02:44.297Z,77.27
2023-05-12T23:07:50.401Z,78.08
2023-05-12T23:12:56.031Z,78.45
2023-05-12T23:18:21.654Z,78.54
2023-05-12T23:23:36.244Z,78.69
2023-05-12T23:28:41.687Z,79.14
2023-05-12T23:33:47.248Z,78.59
2023-05-12T23:38:54.617Z,78.61
2023-05-12T23:44:00.297Z,79.17
2023-05-12T23:49:06.512Z,79.38
2023-05-12T23:54:12.061Z,79.34
2023-05-12T23:59:17.601Z,79.04
